LICJ/PMO METAR and TAF weather

Enter ICAO airport designator
Station Type Date Time Source
LICJ METAR 2020/03/31 08:50 UTC NOAA

LICJ 310850Z 26003KT CAVOK 14/08 Q1016


Station Type Date Time Source
LICJ Decoded METAR 2020/03/31 08:50 UTC NOAA

Palermo / Punta Raisi, Italy (LICJ) 38-11N 013-06E 21M
Mar 31, 2020 - 04:50 AM EDT / 2020.03.31 0850 UTC
Wind: from the W (260 degrees) at 3 MPH (3 KT):0
Visibility: greater than 7 mile(s):0
Temperature: 57 F (14 C)
Dew Point: 46 F (8 C)
Relative Humidity: 67%
Pressure (altimeter): 30.00 in. Hg (1016 hPa)
ob: LICJ 310850Z 26003KT CAVOK 14/08 Q1016
cycle: 9

Station Type Date Time Source
LICJ TAF 2020/03/31 08:43 UTC NOAA

TAF LICJ 310737Z 3108/0106 VRB06KT 9999 SCT030
TEMPO 0100/0106 RA

Example: see airport list